Time;durP1;ratioP1;P1;durP2;ratioP2;P2;SDS_P1;SDS_P2;PMS_P1;PMS_P2;Temp;Humidity;BMP_temperature;BMP_pressure;BME280_temperature;BME280_humidity;BME280_pressure;Samples;Min_cycle;Max_cycle;Signal;HPM_P1;HPM_P2
2022/05/12 00:00:21;;;;;;;;;;;20.60;99.90;;;;;;5089101;28;19908;-83
2022/05/12 00:02:58;;;;;;;;;;;20.60;99.90;;;;;;5076255;28;19916;-83
2022/05/12 00:05:52;;;;;;;;;;;20.70;99.90;;;;;;5087689;28;19908;-82
2022/05/12 00:08:18;;;;;;;;;;;20.70;99.90;;;;;;5095612;28;19970;-82
2022/05/12 00:10:53;;;;;;;;;;;20.60;99.90;;;;;;5088710;28;20359;-82
2022/05/12 00:13:19;;;;;;;;;;;20.60;99.90;;;;;;5083411;28;19917;-82
2022/05/12 00:15:45;;;;;;;;;;;20.60;99.90;;;;;;5072495;28;20397;-74
2022/05/12 00:18:11;;;;;;;;;;;20.70;99.90;;;;;;5083021;28;19916;-73
2022/05/12 00:20:38;;;;;;;;;;;20.60;99.90;;;;;;5062933;28;19979;-73
2022/05/12 00:23:10;;;;;;;;;;;20.60;99.90;;;;;;5074701;28;19912;-73
2022/05/12 00:25:36;;;;;;;;;;;20.50;99.90;;;;;;5076762;28;19916;-73
2022/05/12 00:28:02;;;;;;;;;;;20.50;99.90;;;;;;5074683;28;20347;-73
2022/05/12 00:30:27;;;;;;;;;;;20.40;99.90;;;;;;5071263;28;19912;-82
2022/05/12 00:32:53;;;;;;;;;;;20.30;99.90;;;;;;5083534;28;19940;-82
2022/05/12 00:35:19;;;;;;;;;;;20.30;99.90;;;;;;5078695;28;19909;-82
2022/05/12 00:37:44;;;;;;;;;;;20.20;99.90;;;;;;5086049;28;19915;-82
2022/05/12 00:40:23;;;;;;;;;;;20.20;99.90;;;;;;5088238;28;19919;-82
2022/05/12 00:42:53;;;;;;;;;;;20.10;99.90;;;;;;5074234;28;19931;-82
2022/05/12 00:45:35;;;;;;;;;;;20.10;99.90;;;;;;5092462;28;19957;-82
2022/05/12 00:48:02;;;;;;;;;;;20.00;99.90;;;;;;5081477;28;20369;-82
2022/05/12 00:50:39;;;;;;;;;;;20.00;99.90;;;;;;5084217;28;19922;-82
2022/05/12 00:53:28;;;;;;;;;;;19.90;99.90;;;;;;5075178;28;19919;-82
2022/05/12 00:56:07;;;;;;;;;;;19.80;99.90;;;;;;5083652;28;19908;-82
2022/05/12 00:58:41;;;;;;;;;;;19.70;99.90;;;;;;5087589;28;19970;-82
2022/05/12 01:01:16;;;;;;;;;;;19.70;99.90;;;;;;5081862;28;20434;-82
2022/05/12 01:06:45;;;;;;;;;;;19.40;99.90;;;;;;5054415;28;19962;-82
2022/05/12 01:09:16;;;;;;;;;;;19.30;99.90;;;;;;5059824;28;20011;-82
2022/05/12 01:12:04;;;;;;;;;;;19.20;99.90;;;;;;5065874;28;20001;-82
2022/05/12 01:14:30;;;;;;;;;;;19.20;99.90;;;;;;5091387;28;19923;-73
2022/05/12 01:17:00;;;;;;;;;;;19.10;99.90;;;;;;5082832;28;19913;-73
2022/05/12 01:19:27;;;;;;;;;;;19.00;99.90;;;;;;5073624;28;19943;-73
2022/05/12 01:21:53;;;;;;;;;;;19.00;99.90;;;;;;5080644;28;20352;-73
2022/05/12 01:24:20;;;;;;;;;;;18.90;99.90;;;;;;5091092;28;19912;-73
2022/05/12 01:26:46;;;;;;;;;;;18.80;99.90;;;;;;5055823;28;20371;-73
2022/05/12 01:29:12;;;;;;;;;;;18.70;99.90;;;;;;5077878;28;19908;-73
2022/05/12 01:31:52;;;;;;;;;;;18.60;99.90;;;;;;5083520;28;19916;-82
2022/05/12 01:34:23;;;;;;;;;;;18.50;99.90;;;;;;5078806;28;20065;-81
2022/05/12 01:36:52;;;;;;;;;;;18.50;99.90;;;;;;5080469;28;20331;-82
2022/05/12 01:39:18;;;;;;;;;;;18.40;99.90;;;;;;5067606;28;19920;-82
2022/05/12 01:42:16;;;;;;;;;;;18.30;99.90;;;;;;5073656;28;19968;-82
2022/05/12 01:44:42;;;;;;;;;;;18.30;99.90;;;;;;5072233;28;19959;-74
2022/05/12 01:47:08;;;;;;;;;;;18.10;99.90;;;;;;5078274;28;19920;-74
2022/05/12 01:49:34;;;;;;;;;;;18.10;99.90;;;;;;5080299;28;20259;-73
2022/05/12 01:52:00;;;;;;;;;;;18.00;99.90;;;;;;5087076;28;19908;-73
2022/05/12 01:54:27;;;;;;;;;;;17.90;99.90;;;;;;5085362;28;20011;-73
2022/05/12 01:56:52;;;;;;;;;;;17.90;99.90;;;;;;5086875;28;19912;-73
2022/05/12 01:59:18;;;;;;;;;;;17.80;99.90;;;;;;5085848;28;20267;-73
2022/05/12 02:01:44;;;;;;;;;;;17.80;99.90;;;;;;5075111;28;19913;-73
2022/05/12 02:04:10;;;;;;;;;;;17.80;99.90;;;;;;5077264;28;19921;-73
2022/05/12 02:06:36;;;;;;;;;;;17.80;99.90;;;;;;5086585;28;19998;-73
2022/05/12 02:09:02;;;;;;;;;;;17.70;99.90;;;;;;5077532;28;20007;-73
2022/05/12 02:11:28;;;;;;;;;;;17.80;99.90;;;;;;5079459;28;19970;-73
2022/05/12 02:13:54;;;;;;;;;;;17.70;99.90;;;;;;5085020;28;19920;-73
2022/05/12 02:16:30;;;;;;;;;;;17.60;99.90;;;;;;5084111;28;19961;-82
2022/05/12 02:18:55;;;;;;;;;;;17.60;99.90;;;;;;5083448;28;20305;-82
2022/05/12 02:21:28;;;;;;;;;;;17.60;99.90;;;;;;5076977;28;19966;-82
2022/05/12 02:24:05;;;;;;;;;;;17.50;99.90;;;;;;5077721;28;20442;-82
2022/05/12 02:26:41;;;;;;;;;;;17.50;99.90;;;;;;5077173;28;19916;-82
2022/05/12 02:29:16;;;;;;;;;;;17.50;99.90;;;;;;5077302;28;20006;-82
2022/05/12 02:31:46;;;;;;;;;;;17.50;99.90;;;;;;5077162;28;19958;-82
2022/05/12 02:34:13;;;;;;;;;;;17.50;99.90;;;;;;5085673;28;19959;-82
2022/05/12 02:36:38;;;;;;;;;;;17.40;99.90;;;;;;5076441;28;19942;-82
2022/05/12 02:39:04;;;;;;;;;;;17.40;99.90;;;;;;5084483;28;19912;-83
2022/05/12 02:41:34;;;;;;;;;;;17.40;99.90;;;;;;5095931;28;19916;-82
2022/05/12 02:44:04;;;;;;;;;;;17.50;99.90;;;;;;5071709;28;19912;-82
2022/05/12 02:46:30;;;;;;;;;;;17.50;99.90;;;;;;5064636;28;19962;-73
2022/05/12 02:48:55;;;;;;;;;;;17.50;99.90;;;;;;5082847;28;19912;-73
2022/05/12 02:51:21;;;;;;;;;;;17.40;99.90;;;;;;5079325;28;19913;-73
2022/05/12 02:53:47;;;;;;;;;;;17.40;99.90;;;;;;5096432;28;19935;-73
2022/05/12 02:56:13;;;;;;;;;;;17.40;99.90;;;;;;5082802;28;19983;-73
2022/05/12 02:58:41;;;;;;;;;;;17.40;99.90;;;;;;5096276;28;19915;-73
2022/05/12 03:01:34;;;;;;;;;;;17.30;99.90;;;;;;5081847;28;19913;-82
2022/05/12 03:04:00;;;;;;;;;;;17.30;99.90;;;;;;5070355;28;20256;-82
2022/05/12 03:06:35;;;;;;;;;;;17.30;99.90;;;;;;5092926;28;19912;-82
2022/05/12 03:09:10;;;;;;;;;;;17.30;99.90;;;;;;5096702;28;20374;-82
2022/05/12 03:11:36;;;;;;;;;;;17.20;99.90;;;;;;5076225;28;20274;-82
2022/05/12 03:14:22;;;;;;;;;;;17.20;99.90;;;;;;5095814;28;19923;-82
2022/05/12 03:16:52;;;;;;;;;;;17.10;99.90;;;;;;5089407;28;19924;-73
2022/05/12 03:19:20;;;;;;;;;;;17.10;99.90;;;;;;5074970;28;19920;-73
2022/05/12 03:21:46;;;;;;;;;;;17.10;99.90;;;;;;5074207;28;19912;-73
2022/05/12 03:24:13;;;;;;;;;;;17.00;99.90;;;;;;5094834;28;19912;-73
2022/05/12 03:26:40;;;;;;;;;;;16.90;99.90;;;;;;5091244;28;19920;-73
2022/05/12 03:29:06;;;;;;;;;;;16.80;99.90;;;;;;5094178;28;19916;-74
2022/05/12 03:31:40;;;;;;;;;;;16.80;99.90;;;;;;5093347;28;20061;-82
2022/05/12 03:34:22;;;;;;;;;;;16.70;99.90;;;;;;5051575;28;19908;-82
2022/05/12 03:37:05;;;;;;;;;;;16.70;99.90;;;;;;5080178;28;19978;-82
2022/05/12 03:39:31;;;;;;;;;;;16.60;99.90;;;;;;5076409;28;19913;-82
2022/05/12 03:42:06;;;;;;;;;;;16.50;99.90;;;;;;5083543;28;19962;-84
2022/05/12 03:44:58;;;;;;;;;;;16.40;99.90;;;;;;5083502;28;19912;-82
2022/05/12 03:47:55;;;;;;;;;;;16.40;99.90;;;;;;5076009;28;19912;-82
2022/05/12 03:53:28;;;;;;;;;;;16.20;99.90;;;;;;5089297;28;20362;-82
2022/05/12 03:55:54;;;;;;;;;;;16.20;99.90;;;;;;5078914;28;19912;-82
2022/05/12 03:58:20;;;;;;;;;;;16.10;99.90;;;;;;5075408;28;19919;-82
2022/05/12 04:00:48;;;;;;;;;;;16.10;99.90;;;;;;5077538;28;19916;-74
2022/05/12 04:03:14;;;;;;;;;;;16.00;99.90;;;;;;5063459;28;19958;-73
2022/05/12 04:05:40;;;;;;;;;;;15.90;99.90;;;;;;5094859;28;19998;-73
2022/05/12 04:08:05;;;;;;;;;;;15.90;99.90;;;;;;5081113;28;20281;-73
2022/05/12 04:10:34;;;;;;;;;;;15.90;99.90;;;;;;5078774;28;19908;-73
2022/05/12 04:13:00;;;;;;;;;;;15.80;99.90;;;;;;5073962;28;19917;-74
2022/05/12 04:15:28;;;;;;;;;;;15.80;99.90;;;;;;5060866;28;20007;-73
2022/05/12 04:17:58;;;;;;;;;;;15.80;99.90;;;;;;5080521;28;19908;-73
2022/05/12 04:20:24;;;;;;;;;;;15.80;99.90;;;;;;5078654;28;19912;-73
2022/05/12 04:22:50;;;;;;;;;;;15.80;99.90;;;;;;5080339;28;19955;-73
2022/05/12 04:25:16;;;;;;;;;;;15.70;99.90;;;;;;5081051;28;19997;-74
2022/05/12 04:27:41;;;;;;;;;;;15.70;99.90;;;;;;5081850;28;19966;-73
2022/05/12 04:30:09;;;;;;;;;;;15.70;99.90;;;;;;5067564;28;20321;-73
2022/05/12 04:32:34;;;;;;;;;;;15.70;99.90;;;;;;5088261;28;19908;-74
2022/05/12 04:35:12;;;;;;;;;;;15.80;99.90;;;;;;5083234;28;19919;-71
2022/05/12 04:37:39;;;;;;;;;;;15.90;99.90;;;;;;5077988;28;19934;-71
2022/05/12 04:40:06;;;;;;;;;;;16.00;99.90;;;;;;5078304;28;19912;-70
2022/05/12 04:42:32;;;;;;;;;;;16.00;99.90;;;;;;5089665;28;19928;-71
2022/05/12 04:44:58;;;;;;;;;;;16.10;99.90;;;;;;5087700;28;19916;-71
2022/05/12 04:47:23;;;;;;;;;;;16.20;99.90;;;;;;5083221;28;19908;-72
2022/05/12 04:49:50;;;;;;;;;;;16.40;99.90;;;;;;5084377;28;20259;-71
2022/05/12 04:52:16;;;;;;;;;;;16.40;99.90;;;;;;5073939;28;20007;-71
2022/05/12 04:54:41;;;;;;;;;;;16.50;99.90;;;;;;5084695;28;20363;-71
2022/05/12 04:57:07;;;;;;;;;;;16.50;99.90;;;;;;5094512;28;19912;-71
2022/05/12 04:59:33;;;;;;;;;;;16.60;99.90;;;;;;5089615;28;19987;-71
2022/05/12 05:01:59;;;;;;;;;;;16.70;99.90;;;;;;5073039;28;20364;-71
2022/05/12 05:04:24;;;;;;;;;;;16.80;99.90;;;;;;5075773;28;19923;-71
2022/05/12 05:06:50;;;;;;;;;;;16.90;99.90;;;;;;5078302;28;19942;-71
2022/05/12 05:09:16;;;;;;;;;;;17.00;99.90;;;;;;5068374;28;19912;-71
2022/05/12 05:11:41;;;;;;;;;;;17.10;99.90;;;;;;5078115;28;19912;-71
2022/05/12 05:14:07;;;;;;;;;;;17.20;99.90;;;;;;5088837;28;19919;-71
2022/05/12 05:16:32;;;;;;;;;;;17.30;99.90;;;;;;5091195;28;20279;-71
2022/05/12 05:18:58;;;;;;;;;;;17.40;99.90;;;;;;5081686;28;19913;-72
2022/05/12 05:21:24;;;;;;;;;;;17.50;99.90;;;;;;5093030;28;19908;-71
2022/05/12 05:23:49;;;;;;;;;;;17.60;99.90;;;;;;5079628;28;20302;-72
2022/05/12 05:26:15;;;;;;;;;;;17.80;99.90;;;;;;5074072;28;19908;-71
2022/05/12 05:28:40;;;;;;;;;;;17.80;99.90;;;;;;5083237;28;20274;-71
2022/05/12 05:31:06;;;;;;;;;;;18.00;99.90;;;;;;5086118;28;20011;-71
2022/05/12 05:33:32;;;;;;;;;;;18.00;99.90;;;;;;5073749;28;19912;-71
2022/05/12 05:35:57;;;;;;;;;;;18.10;99.90;;;;;;5063508;28;19916;-71
2022/05/12 05:38:24;;;;;;;;;;;18.10;99.90;;;;;;5093132;28;19912;-71
2022/05/12 05:40:53;;;;;;;;;;;18.10;99.90;;;;;;5091230;28;20260;-71
2022/05/12 05:43:19;;;;;;;;;;;18.10;99.90;;;;;;5077868;28;19920;-71
2022/05/12 05:45:45;;;;;;;;;;;18.10;99.90;;;;;;5077270;28;19956;-71
2022/05/12 05:48:10;;;;;;;;;;;18.20;99.90;;;;;;5069695;28;20464;-73
2022/05/12 05:53:25;;;;;;;;;;;18.40;99.90;;;;;;5089790;28;20539;-73
2022/05/12 05:55:52;;;;;;;;;;;18.60;99.90;;;;;;5083422;28;19912;-73
2022/05/12 05:58:18;;;;;;;;;;;18.80;99.90;;;;;;5086600;28;19912;-73
2022/05/12 06:00:43;;;;;;;;;;;19.00;99.90;;;;;;5081233;28;19920;-73
2022/05/12 06:03:09;;;;;;;;;;;19.00;99.90;;;;;;5090288;28;19939;-71
2022/05/12 06:05:36;;;;;;;;;;;19.00;99.90;;;;;;5079386;28;19912;-71
2022/05/12 06:08:02;;;;;;;;;;;19.10;99.90;;;;;;5073347;28;19995;-71
2022/05/12 06:10:28;;;;;;;;;;;19.10;99.90;;;;;;5073760;28;19923;-71
2022/05/12 06:12:54;;;;;;;;;;;19.30;99.90;;;;;;5074033;28;19939;-71
2022/05/12 06:15:20;;;;;;;;;;;19.50;99.90;;;;;;5063255;28;20428;-71
2022/05/12 06:17:45;;;;;;;;;;;19.60;99.90;;;;;;5079091;28;19916;-73
2022/05/12 06:20:11;;;;;;;;;;;19.70;99.90;;;;;;5073207;28;19932;-73
2022/05/12 06:22:37;;;;;;;;;;;19.80;99.90;;;;;;5090913;28;19916;-73
2022/05/12 06:25:05;;;;;;;;;;;19.90;99.90;;;;;;5081855;28;20303;-73
2022/05/12 06:27:35;;;;;;;;;;;19.80;99.90;;;;;;5087463;28;19962;-86
2022/05/12 06:30:05;;;;;;;;;;;19.80;99.90;;;;;;5073573;28;20355;-85
2022/05/12 06:35:34;;;;;;;;;;;19.40;99.90;;;;;;5077717;28;20008;-85
2022/05/12 06:44:06;;;;;;;;;;;19.30;99.90;;;;;;5069956;28;20003;-85
2022/05/12 06:46:32;;;;;;;;;;;19.40;99.90;;;;;;5062180;28;19960;-85
2022/05/12 06:49:02;;;;;;;;;;;19.40;99.90;;;;;;5086557;28;20420;-79
2022/05/12 06:51:28;;;;;;;;;;;19.30;99.90;;;;;;5068506;28;19951;-83
2022/05/12 06:54:11;;;;;;;;;;;19.40;99.90;;;;;;5086105;28;19912;-82
2022/05/12 06:56:46;;;;;;;;;;;19.40;99.90;;;;;;5080755;28;19912;-82
2022/05/12 07:02:15;;;;;;;;;;;19.70;99.90;;;;;;5074035;28;20317;-78
2022/05/12 07:04:46;;;;;;;;;;;19.90;99.90;;;;;;5090337;28;19908;-83
2022/05/12 07:07:16;;;;;;;;;;;20.00;99.90;;;;;;5066921;28;20278;-83
2022/05/12 07:09:54;;;;;;;;;;;20.20;99.90;;;;;;5059079;28;19954;-83
2022/05/12 07:12:20;;;;;;;;;;;20.30;99.90;;;;;;5075398;28;19996;-82
2022/05/12 07:15:04;;;;;;;;;;;20.30;99.90;;;;;;5075526;28;19912;-82
2022/05/12 07:17:32;;;;;;;;;;;20.10;99.90;;;;;;5074545;28;19920;-80
2022/05/12 07:26:35;;;;;;;;;;;20.00;99.90;;;;;;5065720;28;19982;-74
2022/05/12 07:28:12;;;;;;;;;;;20.30;99.90;;;;;;5071825;28;19915;-73
2022/05/12 07:33:36;;;;;;;;;;;20.50;99.90;;;;;;5084305;28;19915;-82
2022/05/12 07:36:23;;;;;;;;;;;20.60;99.90;;;;;;5070036;28;19915;-82
2022/05/12 07:39:05;;;;;;;;;;;20.40;99.90;;;;;;5081260;28;20321;-82
2022/05/12 07:41:43;;;;;;;;;;;20.40;99.90;;;;;;5096004;28;19954;-82
2022/05/12 07:44:10;;;;;;;;;;;20.40;99.90;;;;;;5082046;28;19946;-82
2022/05/12 07:46:40;;;;;;;;;;;20.40;99.90;;;;;;5083820;28;19920;-83
2022/05/12 07:49:06;;;;;;;;;;;20.70;99.90;;;;;;5078187;28;19957;-82
2022/05/12 07:51:32;;;;;;;;;;;20.80;99.90;;;;;;5095025;28;20264;-82
2022/05/12 07:53:57;;;;;;;;;;;21.10;99.90;;;;;;5085275;28;19908;-82
2022/05/12 07:56:25;;;;;;;;;;;21.40;99.90;;;;;;5077432;28;19954;-82
2022/05/12 07:58:51;;;;;;;;;;;21.60;99.90;;;;;;5081049;28;19912;-82
2022/05/12 08:01:19;;;;;;;;;;;21.90;99.90;;;;;;5079714;28;20378;-83
2022/05/12 08:03:45;;;;;;;;;;;22.00;99.90;;;;;;5077978;28;20363;-83
2022/05/12 08:06:12;;;;;;;;;;;22.00;99.90;;;;;;5081319;28;19920;-74
2022/05/12 08:08:38;;;;;;;;;;;21.70;99.90;;;;;;5078855;28;20011;-73
2022/05/12 08:11:05;;;;;;;;;;;21.80;99.90;;;;;;5080454;28;20007;-74
2022/05/12 08:13:32;;;;;;;;;;;21.80;99.90;;;;;;5079783;28;19916;-73
2022/05/12 08:15:58;;;;;;;;;;;21.60;99.90;;;;;;5085943;28;19995;-74
2022/05/12 08:18:24;;;;;;;;;;;21.60;99.90;;;;;;5073144;28;20003;-71
2022/05/12 08:20:50;;;;;;;;;;;21.90;99.90;;;;;;5092234;28;19915;-72
2022/05/12 08:23:16;;;;;;;;;;;21.60;99.90;;;;;;5074983;28;19916;-71
2022/05/12 08:25:42;;;;;;;;;;;21.40;99.90;;;;;;5081142;28;20313;-72
2022/05/12 08:28:09;;;;;;;;;;;21.40;99.90;;;;;;5092155;28;20377;-72
2022/05/12 08:30:34;;;;;;;;;;;21.50;99.90;;;;;;5081330;28;20435;-71
2022/05/12 08:33:00;;;;;;;;;;;21.40;99.90;;;;;;5077917;28;20011;-75
2022/05/12 08:35:27;;;;;;;;;;;21.40;99.90;;;;;;5087312;28;19939;-72
2022/05/12 08:37:52;;;;;;;;;;;21.40;99.90;;;;;;5094134;28;20003;-72
2022/05/12 08:40:22;;;;;;;;;;;21.50;99.90;;;;;;5075722;28;20383;-72
2022/05/12 08:42:48;;;;;;;;;;;21.50;99.90;;;;;;5091574;28;19919;-72
2022/05/12 08:45:17;;;;;;;;;;;21.50;99.90;;;;;;5073653;28;19912;-71
2022/05/12 08:47:45;;;;;;;;;;;21.50;99.90;;;;;;5085911;28;19908;-71
2022/05/12 08:50:26;;;;;;;;;;;21.40;99.90;;;;;;5076747;28;20370;-73
2022/05/12 08:52:54;;;;;;;;;;;21.50;99.90;;;;;;5067227;28;20373;-81
2022/05/12 08:55:26;;;;;;;;;;;21.30;99.90;;;;;;5091205;28;20400;-81
2022/05/12 08:57:55;;;;;;;;;;;21.50;99.90;;;;;;5093816;28;20375;-86
2022/05/12 09:00:22;;;;;;;;;;;21.60;99.90;;;;;;5076307;28;19913;-81
2022/05/12 09:03:07;;;;;;;;;;;21.90;99.90;;;;;;5086587;28;19916;-83
2022/05/12 09:05:42;;;;;;;;;;;22.00;99.90;;;;;;5094099;28;19958;-74
2022/05/12 09:08:07;;;;;;;;;;;21.90;99.90;;;;;;5091504;28;19912;-73
2022/05/12 09:10:39;;;;;;;;;;;21.80;99.90;;;;;;5092626;28;20306;-74
2022/05/12 09:13:10;;;;;;;;;;;21.80;99.90;;;;;;5083392;28;19962;-73
2022/05/12 09:15:37;;;;;;;;;;;21.70;99.90;;;;;;5093267;28;19999;-74
2022/05/12 09:18:26;;;;;;;;;;;21.70;99.90;;;;;;5059136;28;20102;-74
2022/05/12 09:20:52;;;;;;;;;;;21.60;99.90;;;;;;5060898;28;20034;-82
2022/05/12 09:23:18;;;;;;;;;;;21.70;99.90;;;;;;5093384;28;19970;-82
2022/05/12 09:25:45;;;;;;;;;;;21.80;99.90;;;;;;5093235;28;19909;-82
2022/05/12 09:28:19;;;;;;;;;;;21.80;99.90;;;;;;5093506;28;19908;-82
2022/05/12 09:30:45;;;;;;;;;;;21.60;99.90;;;;;;5081416;28;20278;-82
2022/05/12 09:33:10;;;;;;;;;;;21.40;99.90;;;;;;5073312;28;19909;-82
2022/05/12 09:35:36;;;;;;;;;;;21.30;99.90;;;;;;5079540;28;19908;-82
2022/05/12 09:38:19;;;;;;;;;;;21.20;99.90;;;;;;5072823;28;20272;-82
2022/05/12 09:40:44;;;;;;;;;;;21.20;99.90;;;;;;5072805;28;20003;-82
2022/05/12 09:43:18;;;;;;;;;;;21.20;99.90;;;;;;5071894;28;20002;-81
2022/05/12 09:45:57;;;;;;;;;;;21.40;99.90;;;;;;5091593;28;19915;-81
2022/05/12 09:48:24;;;;;;;;;;;21.60;99.90;;;;;;5071508;28;19999;-82
2022/05/12 09:50:50;;;;;;;;;;;21.70;99.90;;;;;;5067308;28;19912;-74
2022/05/12 09:53:29;;;;;;;;;;;21.90;99.90;;;;;;5079544;28;19916;-73
2022/05/12 09:55:59;;;;;;;;;;;22.10;99.90;;;;;;5093176;28;20053;-74
2022/05/12 09:58:28;;;;;;;;;;;22.40;99.90;;;;;;5093029;28;19915;-74
2022/05/12 10:01:15;;;;;;;;;;;22.60;99.90;;;;;;5093032;28;19915;-74
2022/05/12 10:09:17;;;;;;;;;;;22.30;99.90;;;;;;5093407;28;19916;-82
2022/05/12 10:12:01;;;;;;;;;;;22.30;99.90;;;;;;5072224;28;20011;-82
2022/05/12 10:14:36;;;;;;;;;;;22.20;99.90;;;;;;5090217;28;19916;-83
2022/05/12 10:17:05;;;;;;;;;;;22.10;99.90;;;;;;5092933;28;19908;-82
2022/05/12 10:19:32;;;;;;;;;;;22.20;99.90;;;;;;5093316;28;19958;-82
2022/05/12 10:22:07;;;;;;;;;;;22.40;99.90;;;;;;5093205;28;19908;-82
2022/05/12 10:24:39;;;;;;;;;;;22.60;99.90;;;;;;5078926;28;19912;-82
2022/05/12 10:27:41;;;;;;;;;;;22.80;99.90;;;;;;5096738;28;19915;-82
2022/05/12 10:30:24;;;;;;;;;;;22.70;99.90;;;;;;4982730;28;19945;-82
2022/05/12 10:32:58;;;;;;;;;;;22.90;99.90;;;;;;4962370;28;19961;-82
2022/05/12 10:35:31;;;;;;;;;;;23.10;99.90;;;;;;4990827;28;20134;-82
2022/05/12 10:38:04;;;;;;;;;;;23.00;99.90;;;;;;4994730;28;20344;-82
2022/05/12 10:40:37;;;;;;;;;;;23.00;99.90;;;;;;4994531;28;20393;-82
2022/05/12 10:43:08;;;;;;;;;;;22.90;99.90;;;;;;4994318;28;20345;-82
2022/05/12 10:45:38;;;;;;;;;;;22.70;99.90;;;;;;4994439;28;20377;-82
2022/05/12 10:48:16;;;;;;;;;;;22.60;99.90;;;;;;4993636;28;19910;-82
2022/05/12 10:51:02;;;;;;;;;;;22.50;99.90;;;;;;4971965;28;19959;-82
2022/05/12 10:53:42;;;;;;;;;;;22.50;99.90;;;;;;4960678;28;19917;-82
2022/05/12 10:56:08;;;;;;;;;;;22.60;99.90;;;;;;4975944;28;19957;-72
2022/05/12 10:58:48;;;;;;;;;;;22.90;99.90;;;;;;4977173;28;20016;-72
2022/05/12 11:01:26;;;;;;;;;;;23.00;99.90;;;;;;4971938;28;19985;-72
2022/05/12 11:03:59;;;;;;;;;;;23.20;99.90;;;;;;5010279;28;19950;-75
2022/05/12 11:06:28;;;;;;;;;;;23.10;99.90;;;;;;5076668;28;19913;-72
2022/05/12 11:08:56;;;;;;;;;;;23.10;99.90;;;;;;5088270;28;19908;-72
2022/05/12 11:11:34;;;;;;;;;;;22.90;99.90;;;;;;5096417;28;19915;-71
2022/05/12 11:14:06;;;;;;;;;;;22.90;99.90;;;;;;5070703;28;20035;-72
2022/05/12 11:16:38;;;;;;;;;;;22.80;99.90;;;;;;5081727;28;19913;-72
2022/05/12 11:19:20;;;;;;;;;;;22.70;99.90;;;;;;5086942;28;19924;-72
2022/05/12 11:21:55;;;;;;;;;;;22.70;99.90;;;;;;5096394;28;19908;-71
2022/05/12 11:24:28;;;;;;;;;;;22.90;99.90;;;;;;5072504;28;20343;-76
2022/05/12 11:27:18;;;;;;;;;;;23.20;99.90;;;;;;5076007;28;20470;-78
2022/05/12 11:29:59;;;;;;;;;;;23.50;99.90;;;;;;5061754;28;19913;-72
2022/05/12 11:32:26;;;;;;;;;;;23.30;99.90;;;;;;5068731;28;19920;-73
2022/05/12 11:34:54;;;;;;;;;;;23.50;99.90;;;;;;5094156;28;20301;-73
2022/05/12 11:37:29;;;;;;;;;;;23.80;99.90;;;;;;5076681;28;19912;-73
2022/05/12 11:39:56;;;;;;;;;;;24.00;99.90;;;;;;5075994;28;19912;-73
2022/05/12 11:42:25;;;;;;;;;;;24.00;99.90;;;;;;5082336;28;19946;-73
2022/05/12 11:44:53;;;;;;;;;;;23.70;99.90;;;;;;5081661;28;20327;-72
2022/05/12 11:47:19;;;;;;;;;;;23.70;99.90;;;;;;5082662;28;19938;-73
2022/05/12 11:50:05;;;;;;;;;;;23.80;99.90;;;;;;5077354;28;19999;-73
2022/05/12 11:52:34;;;;;;;;;;;23.80;99.90;;;;;;5067488;28;19947;-72
2022/05/12 11:55:19;;;;;;;;;;;23.70;99.90;;;;;;5092757;28;19912;-72
2022/05/12 11:57:55;;;;;;;;;;;23.80;99.90;;;;;;5082119;28;19908;-72
2022/05/12 12:00:35;;;;;;;;;;;24.10;99.90;;;;;;5062822;28;19908;-73
2022/05/12 12:03:19;;;;;;;;;;;24.20;99.90;;;;;;5072347;28;19912;-72
2022/05/12 12:05:44;;;;;;;;;;;24.20;99.90;;;;;;5077072;28;19912;-72
2022/05/12 12:08:10;;;;;;;;;;;24.30;99.90;;;;;;5086876;28;20003;-72
2022/05/12 12:10:37;;;;;;;;;;;24.20;99.90;;;;;;5084442;28;19912;-73
2022/05/12 12:13:04;;;;;;;;;;;24.20;99.90;;;;;;5067697;28;19923;-73
2022/05/12 12:15:37;;;;;;;;;;;24.50;99.90;;;;;;5078707;28;20002;-73
2022/05/12 12:18:17;;;;;;;;;;;24.80;99.90;;;;;;5072072;28;20358;-73
2022/05/12 12:20:48;;;;;;;;;;;24.80;99.90;;;;;;5086280;28;19924;-72
2022/05/12 12:23:27;;;;;;;;;;;24.80;99.90;;;;;;5088456;28;19913;-72
2022/05/12 12:26:05;;;;;;;;;;;24.50;99.90;;;;;;5074734;28;20267;-72
2022/05/12 12:28:52;;;;;;;;;;;24.30;99.90;;;;;;5074858;28;19908;-72
2022/05/12 12:31:23;;;;;;;;;;;24.20;99.90;;;;;;5073921;28;19919;-72
2022/05/12 12:33:59;;;;;;;;;;;24.00;99.90;;;;;;5088058;28;20010;-72
2022/05/12 12:36:29;;;;;;;;;;;23.90;99.90;;;;;;5070594;28;20053;-71
2022/05/12 12:38:54;;;;;;;;;;;23.90;99.90;;;;;;5079861;28;19913;-72
2022/05/12 12:41:20;;;;;;;;;;;24.10;99.90;;;;;;5082598;28;19920;-72
2022/05/12 12:43:53;;;;;;;;;;;24.00;99.90;;;;;;5094410;28;20398;-72
2022/05/12 12:46:20;;;;;;;;;;;24.40;99.90;;;;;;5088905;28;19912;-72
2022/05/12 12:48:51;;;;;;;;;;;24.90;99.90;;;;;;5078000;28;19958;-72
2022/05/12 12:51:28;;;;;;;;;;;25.30;99.90;;;;;;5074684;28;19909;-72
2022/05/12 12:56:37;;;;;;;;;;;25.60;99.90;;;;;;5088728;28;19915;-71
2022/05/12 12:59:15;;;;;;;;;;;25.70;99.90;;;;;;5080528;28;19908;-71
2022/05/12 13:01:40;;;;;;;;;;;25.80;99.90;;;;;;5073563;28;20369;-71
2022/05/12 13:04:07;;;;;;;;;;;25.70;99.90;;;;;;5072870;28;20022;-71
2022/05/12 13:06:36;;;;;;;;;;;25.50;99.90;;;;;;5073243;28;20354;-72
2022/05/12 13:09:12;;;;;;;;;;;25.40;99.90;;;;;;5082789;28;20271;-73
2022/05/12 13:11:39;;;;;;;;;;;25.50;99.90;;;;;;5060979;28;19916;-73
2022/05/12 13:14:15;;;;;;;;;;;25.40;99.90;;;;;;5073945;28;20007;-73
2022/05/12 13:16:43;;;;;;;;;;;25.50;99.90;;;;;;5073492;28;20016;-73
2022/05/12 13:19:11;;;;;;;;;;;25.60;99.90;;;;;;5074181;28;20399;-74
2022/05/12 13:21:47;;;;;;;;;;;25.70;99.90;;;;;;5074321;28;20012;-71
2022/05/12 13:24:17;;;;;;;;;;;26.30;99.90;;;;;;5055891;28;20346;-72
2022/05/12 13:26:48;;;;;;;;;;;25.40;99.90;;;;;;5074159;28;19909;-81
2022/05/12 13:29:26;;;;;;;;;;;25.70;99.90;;;;;;5077334;28;20359;-81
2022/05/12 13:31:56;;;;;;;;;;;25.80;99.90;;;;;;5082275;28;19909;-81
2022/05/12 13:34:26;;;;;;;;;;;26.20;99.90;;;;;;5087353;28;19908;-81
2022/05/12 13:36:53;;;;;;;;;;;26.30;99.90;;;;;;5084398;28;19908;-73
2022/05/12 13:39:38;;;;;;;;;;;26.50;99.90;;;;;;5079974;28;19916;-72
2022/05/12 13:42:04;;;;;;;;;;;26.30;99.90;;;;;;5065528;28;19962;-73
2022/05/12 13:44:36;;;;;;;;;;;26.60;99.90;;;;;;5072536;28;20047;-73
2022/05/12 13:47:03;;;;;;;;;;;26.30;99.90;;;;;;5084360;28;19935;-72
2022/05/12 13:49:33;;;;;;;;;;;26.40;99.90;;;;;;5074756;28;19915;-73
2022/05/12 13:52:11;;;;;;;;;;;26.60;99.90;;;;;;5077502;28;19916;-74
2022/05/12 13:54:38;;;;;;;;;;;26.60;99.90;;;;;;5081858;28;20245;-73
2022/05/12 13:57:13;;;;;;;;;;;26.60;99.90;;;;;;5089664;28;19920;-73
2022/05/12 13:59:49;;;;;;;;;;;26.20;99.90;;;;;;5079901;28;19913;-73
2022/05/12 14:02:20;;;;;;;;;;;26.10;99.90;;;;;;5064943;28;19913;-73
2022/05/12 14:04:45;;;;;;;;;;;26.40;99.90;;;;;;5076559;28;19917;-72
2022/05/12 14:07:12;;;;;;;;;;;26.80;99.90;;;;;;5075844;28;20003;-82
2022/05/12 14:09:54;;;;;;;;;;;27.00;99.90;;;;;;5073627;28;19913;-82
2022/05/12 14:12:24;;;;;;;;;;;27.40;99.90;;;;;;5087120;28;19912;-81
2022/05/12 14:21:16;;;;;;;;;;;27.50;99.90;;;;;;5075054;28;19915;-81
2022/05/12 14:23:46;;;;;;;;;;;27.20;99.90;;;;;;5079243;28;19919;-81
2022/05/12 14:26:13;;;;;;;;;;;27.10;99.90;;;;;;5089521;28;19908;-81
2022/05/12 14:28:53;;;;;;;;;;;26.80;99.90;;;;;;5083752;28;20275;-81
2022/05/12 14:31:40;;;;;;;;;;;26.70;99.90;;;;;;5083693;28;19908;-82
2022/05/12 14:34:19;;;;;;;;;;;26.90;99.90;;;;;;5068619;28;19916;-91
2022/05/12 14:36:55;;;;;;;;;;;27.20;99.90;;;;;;5065999;28;19909;-83
2022/05/12 14:39:21;;;;;;;;;;;27.60;99.90;;;;;;5070312;28;20363;-73
2022/05/12 14:41:47;;;;;;;;;;;28.20;99.90;;;;;;5075848;28;19970;-74
2022/05/12 14:44:13;;;;;;;;;;;28.60;99.90;;;;;;5074689;28;19917;-73
2022/05/12 14:46:40;;;;;;;;;;;28.20;99.90;;;;;;5073145;28;19908;-73
2022/05/12 14:49:07;;;;;;;;;;;28.10;99.90;;;;;;5079036;28;19912;-73
2022/05/12 14:51:33;;;;;;;;;;;27.70;99.90;;;;;;5070184;28;20299;-73
2022/05/12 14:54:17;;;;;;;;;;;27.70;99.90;;;;;;5097971;28;19908;-82
2022/05/12 14:56:46;;;;;;;;;;;27.60;99.90;;;;;;5092754;28;20431;-82
2022/05/12 14:59:17;;;;;;;;;;;27.30;99.90;;;;;;5056569;28;19962;-82
2022/05/12 15:02:10;;;;;;;;;;;27.10;99.90;;;;;;5076802;28;19908;-81
2022/05/12 15:04:47;;;;;;;;;;;26.80;99.90;;;;;;5071054;28;20351;-82
2022/05/12 15:07:17;;;;;;;;;;;26.90;99.90;;;;;;5080654;28;19909;-84
2022/05/12 15:09:43;;;;;;;;;;;27.00;99.90;;;;;;5071372;28;19955;-74
2022/05/12 15:12:09;;;;;;;;;;;27.30;99.90;;;;;;5083386;28;19912;-74
2022/05/12 15:14:35;;;;;;;;;;;27.90;99.90;;;;;;5094906;28;19915;-74
2022/05/12 15:17:01;;;;;;;;;;;28.30;99.90;;;;;;5079204;28;19915;-74
2022/05/12 15:19:27;;;;;;;;;;;28.50;99.90;;;;;;5066457;28;19914;-74